Billings, MT (59101)

12:36 PM MDT on July 29, 2016 (GMT -0600)
Jupiter Sulphur | | Change Station

Elev 3114 ft 45.78 °N, 108.49 °W | Updated 6 minutes ago

Partly Cloudy
Partly Cloudy
82.6 °F
Feels Like 82 °F
N
2.0
Wind Variable Wind from East
Gusts 5.0 mph

Today
High -- | Low -- °F
--% Chance of Precip.
Yesterday
High -- | Low -- °F
Precip. -- in
Pressure 29.98 in
Visibility 10.0 miles
Clouds Few 6500 ft
Few 9000 ft
Heat Index 82 °F
Dew Point 53 °F
Humidity 36%
Rainfall 0.00 in
Snow Depth Not available.
5:54 AM 8:45 PM
Waning Crescent, 20% visible
METAR KBIL 291753Z 09006KT 10SM FEW065 FEW090 26/10 A3008 RMK AO2 SLP151 TCU DSNT W-N T02610100 10272 20150 58009
Pressure 29.98 in
Visibility 10.0 miles
Clouds Few 6500 ft
Few 9000 ft
Heat Index 82 °F
Dew Point 53 °F
Humidity 36%
Rainfall 0.00 in
Snow Depth Not available.
5:54 AM 8:45 PM
Waning Crescent, 20% visible
METAR KBIL 291753Z 09006KT 10SM FEW065 FEW090 26/10 A3008 RMK AO2 SLP151 TCU DSNT W-N T02610100 10272 20150 58009

10-Day Weather Forecast

Almanac

Astronomy

Jul. 29, 2016 Rise Set
Actual Time
Civil Twilight
Nautical Twilight
Astronomical Twilight
Moon
Length of Visible Light
Length of Day
Tomorrow will be .
, % of the Moon is Illuminated

Today's Extremes

State Highs State Lows

Community

WunderPhotos

Upload Photos

1,928,393 photos uploaded!

WunderBlog® & News

Nearby

Air Quality

  Air Quality AQ Index Pollutant
Not available.

Snow Depth

Station Depth Elevation

Earthquake Activity

City Distance Mag. Time & Date
Minimum magnitude displayed is 2.5.

Coastal Water Temperatures

Place Temperature

Stations

Nearby Weather Stations

Station Location Temp. Windchill Dew Point Humidity Wind Precip. Elev Updated Type
                   

Watches & Warnings

There are currently no watches in effect.